createdAt,value
2023-04-02T00:00:09.881Z,1.57
2023-04-02T00:02:55.294Z,1.53
2023-04-02T00:05:30.296Z,1.50
2023-04-02T00:08:38.985Z,1.87
2023-04-02T00:11:07.530Z,1.57
2023-04-02T00:13:39.465Z,1.43
2023-04-02T00:16:11.492Z,1.37
2023-04-02T00:18:46.001Z,1.80
2023-04-02T00:21:27.421Z,1.40
2023-04-02T00:23:56.393Z,1.40
2023-04-02T00:26:33.704Z,1.40
2023-04-02T00:29:02.062Z,1.30
2023-04-02T00:31:29.668Z,1.30
2023-04-02T00:33:58.468Z,1.60
2023-04-02T00:36:30.361Z,1.40
2023-04-02T00:38:59.689Z,1.13
2023-04-02T00:41:30.778Z,1.50
2023-04-02T00:43:59.857Z,1.17
2023-04-02T00:46:34.658Z,1.50
2023-04-02T00:49:10.905Z,1.40
2023-04-02T00:51:49.924Z,1.53
2023-04-02T00:54:21.700Z,1.23
2023-04-02T00:56:52.899Z,1.63
2023-04-02T00:59:27.488Z,1.03
2023-04-02T01:02:01.872Z,1.30
2023-04-02T01:04:39.077Z,1.43
2023-04-02T01:07:12.345Z,1.30
2023-04-02T01:09:52.114Z,1.40
2023-04-02T01:12:52.921Z,1.07
2023-04-02T01:15:37.260Z,1.53
2023-04-02T01:18:26.476Z,1.23
2023-04-02T01:21:31.013Z,1.20
2023-04-02T01:24:06.454Z,1.20
2023-04-02T01:26:48.068Z,1.20
2023-04-02T01:29:22.628Z,1.10
2023-04-02T01:31:52.039Z,1.10
2023-04-02T01:34:23.794Z,1.17
2023-04-02T01:37:23.110Z,1.20
2023-04-02T01:39:50.656Z,1.20
2023-04-02T01:42:55.648Z,1.20
2023-04-02T01:45:23.822Z,0.87
2023-04-02T01:47:51.852Z,1.10
2023-04-02T01:50:40.264Z,0.83
2023-04-02T01:53:13.381Z,1.10
2023-04-02T01:55:50.711Z,1.23
2023-04-02T01:58:21.047Z,1.10
2023-04-02T02:00:56.356Z,0.80
2023-04-02T02:03:24.194Z,1.00
2023-04-02T02:05:51.485Z,0.90
2023-04-02T02:08:34.725Z,1.07
2023-04-02T02:11:03.056Z,1.07
2023-04-02T02:13:32.199Z,1.00
2023-04-02T02:16:01.165Z,0.97
2023-04-02T02:18:29.385Z,1.03
2023-04-02T02:20:59.679Z,1.17
2023-04-02T02:23:30.007Z,1.03
2023-04-02T02:25:58.560Z,0.90
2023-04-02T02:28:36.410Z,0.77
2023-04-02T02:31:13.739Z,0.80
2023-04-02T02:33:50.493Z,0.80
2023-04-02T02:36:33.517Z,0.90
2023-04-02T02:39:17.050Z,0.77
2023-04-02T02:41:56.221Z,0.77
2023-04-02T02:44:29.004Z,0.70
2023-04-02T02:47:03.561Z,0.80
2023-04-02T02:49:37.972Z,0.80
2023-04-02T02:52:08.693Z,0.83
2023-04-02T02:54:55.485Z,0.80
2023-04-02T02:57:33.423Z,0.70
2023-04-02T03:00:02.435Z,0.80
2023-04-02T03:02:32.121Z,1.00
2023-04-02T03:05:02.993Z,1.10
2023-04-02T03:07:32.137Z,0.90
2023-04-02T03:10:09.486Z,0.80
2023-04-02T03:12:50.302Z,0.77
2023-04-02T03:15:32.440Z,0.57
2023-04-02T03:18:28.475Z,0.70
2023-04-02T03:21:13.245Z,0.60
2023-04-02T03:23:46.227Z,0.80
2023-04-02T03:26:22.902Z,0.80
2023-04-02T03:28:59.597Z,0.60
2023-04-02T03:31:37.846Z,0.80
2023-04-02T03:34:13.965Z,0.80
2023-04-02T03:36:56.813Z,0.70
2023-04-02T03:39:58.017Z,0.70
2023-04-02T03:42:28.269Z,0.70
2023-04-02T03:45:06.361Z,0.87
2023-04-02T03:48:20.595Z,0.80
2023-04-02T03:50:58.589Z,0.70
2023-04-02T03:53:27.960Z,0.80
2023-04-02T03:55:57.138Z,1.00
2023-04-02T03:58:50.143Z,0.73
2023-04-02T04:01:26.309Z,0.90
2023-04-02T04:04:03.158Z,0.97
2023-04-02T04:06:32.981Z,0.80
2023-04-02T04:09:09.301Z,0.70
2023-04-02T04:11:40.062Z,0.77
2023-04-02T04:14:21.228Z,0.90
2023-04-02T04:17:04.562Z,0.80
2023-04-02T04:19:45.843Z,0.80
2023-04-02T04:22:30.565Z,0.70
2023-04-02T04:25:19.738Z,0.60
2023-04-02T04:27:53.906Z,0.70
2023-04-02T04:31:00.171Z,0.60
2023-04-02T04:33:40.393Z,1.10
2023-04-02T04:36:30.484Z,0.97
2023-04-02T04:39:14.724Z,0.57
2023-04-02T04:41:48.458Z,0.80
2023-04-02T04:44:22.720Z,0.60
2023-04-02T04:47:12.224Z,0.60
2023-04-02T04:50:03.624Z,1.03
2023-04-02T04:52:37.672Z,0.67
2023-04-02T04:55:35.143Z,0.90
2023-04-02T04:58:14.536Z,0.73
2023-04-02T05:00:50.044Z,1.00
2023-04-02T05:03:39.284Z,0.83
2023-04-02T05:06:18.543Z,0.90
2023-04-02T05:08:49.404Z,0.90
2023-04-02T05:11:41.744Z,0.70
2023-04-02T05:14:39.269Z,0.70
2023-04-02T05:17:21.914Z,0.60
2023-04-02T05:20:09.637Z,0.43
2023-04-02T05:22:49.949Z,0.70
2023-04-02T05:25:24.056Z,0.83
2023-04-02T05:27:58.898Z,0.80
2023-04-02T05:30:27.169Z,0.70
2023-04-02T05:33:21.854Z,0.83
2023-04-02T05:35:56.058Z,0.83
2023-04-02T05:38:27.763Z,0.60
2023-04-02T05:41:01.351Z,0.60
2023-04-02T05:43:33.020Z,0.57
2023-04-02T05:46:07.944Z,0.70
2023-04-02T05:48:40.121Z,0.50
2023-04-02T05:51:15.078Z,0.70
2023-04-02T05:53:50.488Z,0.70
2023-04-02T05:56:25.613Z,0.70
2023-04-02T05:58:58.109Z,0.83
2023-04-02T06:02:04.467Z,0.60
2023-04-02T06:04:47.447Z,0.80
2023-04-02T06:07:30.684Z,0.90
2023-04-02T06:10:07.642Z,1.10
2023-04-02T06:12:43.248Z,0.90
2023-04-02T06:15:16.740Z,0.77
2023-04-02T06:17:50.935Z,1.00
2023-04-02T06:20:20.766Z,0.83
2023-04-02T06:22:55.970Z,0.90
2023-04-02T06:25:30.084Z,0.60
2023-04-02T06:28:01.730Z,0.80
2023-04-02T06:30:33.928Z,0.67
2023-04-02T06:33:02.027Z,0.70
2023-04-02T06:35:31.430Z,0.60
2023-04-02T06:38:05.973Z,0.70
2023-04-02T06:40:40.488Z,0.80
2023-04-02T06:43:48.884Z,0.90
2023-04-02T06:47:07.570Z,0.70
2023-04-02T06:49:51.389Z,0.73
2023-04-02T06:52:25.493Z,0.57
2023-04-02T06:54:53.535Z,0.70
2023-04-02T06:57:21.781Z,1.00
2023-04-02T06:59:51.095Z,0.80
2023-04-02T07:02:42.101Z,0.60
2023-04-02T07:05:11.854Z,0.70
2023-04-02T07:07:44.454Z,0.70
2023-04-02T07:10:13.067Z,0.40
2023-04-02T07:12:40.358Z,1.07
2023-04-02T07:15:07.842Z,0.63
2023-04-02T07:17:35.276Z,0.60
2023-04-02T07:20:02.402Z,0.80
2023-04-02T07:22:29.846Z,0.30
2023-04-02T07:25:00.077Z,0.50
2023-04-02T07:27:28.060Z,0.60
2023-04-02T07:29:55.168Z,0.60
2023-04-02T07:32:22.183Z,0.50
2023-04-02T07:34:49.173Z,0.60
2023-04-02T07:37:16.588Z,0.60
2023-04-02T07:39:43.530Z,0.60
2023-04-02T07:42:10.720Z,0.63
2023-04-02T07:44:37.838Z,0.40
2023-04-02T07:47:04.931Z,0.87
2023-04-02T07:49:31.818Z,0.60
2023-04-02T07:51:59.106Z,0.57
2023-04-02T07:54:27.250Z,0.50
2023-04-02T07:56:54.168Z,0.50
2023-04-02T07:59:21.385Z,1.00
2023-04-02T08:01:50.922Z,0.70
2023-04-02T08:04:20.942Z,0.60
2023-04-02T08:06:49.320Z,0.50
2023-04-02T08:09:17.573Z,0.60
2023-04-02T08:11:44.439Z,0.40
2023-04-02T08:14:11.515Z,0.87
2023-04-02T08:16:50.634Z,0.70
2023-04-02T08:19:18.049Z,0.40
2023-04-02T08:21:50.458Z,0.47
2023-04-02T08:24:19.437Z,0.70
2023-04-02T08:26:47.600Z,0.90
2023-04-02T08:29:14.687Z,0.50
2023-04-02T08:31:42.037Z,0.70
2023-04-02T08:34:09.811Z,0.67
2023-04-02T08:36:39.397Z,0.53
2023-04-02T08:39:11.085Z,0.67
2023-04-02T08:41:44.398Z,0.63
2023-04-02T08:44:32.563Z,0.47
2023-04-02T08:47:08.709Z,0.83
2023-04-02T08:49:47.459Z,0.53
2023-04-02T08:52:23.572Z,0.50
2023-04-02T08:54:51.011Z,0.50
2023-04-02T08:57:31.874Z,0.70
2023-04-02T09:00:10.387Z,0.60
2023-04-02T09:02:46.942Z,0.50
2023-04-02T09:05:23.746Z,0.50
2023-04-02T09:07:52.524Z,0.50
2023-04-02T09:10:19.904Z,0.80
2023-04-02T09:12:52.792Z,0.70
2023-04-02T09:15:30.733Z,0.60
2023-04-02T09:18:11.499Z,0.43
2023-04-02T09:20:38.710Z,0.67
2023-04-02T09:23:06.039Z,0.70
2023-04-02T09:25:33.803Z,0.57
2023-04-02T09:28:04.192Z,0.40
2023-04-02T09:31:06.858Z,0.63
2023-04-02T09:33:46.437Z,0.57
2023-04-02T09:36:36.442Z,0.50
2023-04-02T09:39:20.200Z,0.47
2023-04-02T09:41:55.694Z,0.57
2023-04-02T09:44:31.897Z,0.90
2023-04-02T09:47:23.414Z,0.40
2023-04-02T09:49:51.731Z,0.50
2023-04-02T09:52:27.194Z,0.33
2023-04-02T09:55:21.692Z,0.63
2023-04-02T09:57:50.658Z,0.40
2023-04-02T10:00:32.271Z,0.50
2023-04-02T10:03:19.788Z,0.50
2023-04-02T10:05:47.638Z,0.60
2023-04-02T10:08:25.029Z,0.40
2023-04-02T10:10:56.514Z,0.40
2023-04-02T10:13:29.238Z,0.50
2023-04-02T10:16:05.865Z,0.50
2023-04-02T10:18:51.145Z,0.40
2023-04-02T10:21:23.681Z,0.53
2023-04-02T10:23:50.710Z,0.57
2023-04-02T10:26:54.944Z,0.40
2023-04-02T10:29:51.525Z,0.40
2023-04-02T10:32:46.811Z,0.60
2023-04-02T10:35:21.577Z,0.40
2023-04-02T10:38:32.214Z,0.50
2023-04-02T10:41:42.573Z,0.50
2023-04-02T10:44:41.687Z,0.50
2023-04-02T10:47:37.770Z,0.40
2023-04-02T10:50:29.656Z,0.40
2023-04-02T10:52:59.237Z,0.40
2023-04-02T10:55:33.910Z,0.40
2023-04-02T10:58:10.480Z,0.57
2023-04-02T11:00:41.997Z,0.60
2023-04-02T11:03:40.347Z,0.50
2023-04-02T11:06:32.551Z,0.50
2023-04-02T11:09:05.001Z,0.37
2023-04-02T11:11:38.746Z,0.50
2023-04-02T11:14:16.454Z,0.60
2023-04-02T11:16:44.933Z,0.53
2023-04-02T11:19:14.734Z,0.63
2023-04-02T11:21:58.798Z,0.47
2023-04-02T11:24:30.258Z,0.40
2023-04-02T11:27:14.565Z,0.63
2023-04-02T11:30:05.327Z,0.30
2023-04-02T11:32:39.452Z,0.40
2023-04-02T11:35:31.361Z,0.50
2023-04-02T11:38:12.677Z,0.50
2023-04-02T11:40:44.666Z,0.60
2023-04-02T11:43:33.514Z,0.40
2023-04-02T11:46:19.127Z,1.60
2023-04-02T11:48:46.388Z,0.63
2023-04-02T11:51:25.587Z,0.90
2023-04-02T11:53:55.004Z,0.70
2023-04-02T11:56:49.859Z,0.30
2023-04-02T11:59:59.047Z,0.40
2023-04-02T12:02:45.524Z,0.73
2023-04-02T12:05:21.188Z,0.57
2023-04-02T12:08:05.232Z,0.40
2023-04-02T12:10:34.765Z,0.63
2023-04-02T12:13:02.551Z,0.50
2023-04-02T12:15:43.963Z,0.80
2023-04-02T12:18:22.479Z,0.90
2023-04-02T12:20:55.224Z,0.40
2023-04-02T12:23:35.598Z,0.33
2023-04-02T12:26:08.579Z,0.60
2023-04-02T12:28:38.149Z,0.80
2023-04-02T12:31:19.673Z,0.80
2023-04-02T12:33:51.755Z,0.80
2023-04-02T12:36:23.784Z,0.43
2023-04-02T12:38:58.261Z,0.40
2023-04-02T12:41:31.263Z,0.53
2023-04-02T12:44:03.856Z,1.73
2023-04-02T12:46:33.049Z,0.90
2023-04-02T12:49:22.609Z,1.60
2023-04-02T12:51:50.543Z,0.90
2023-04-02T12:54:18.547Z,0.70
2023-04-02T12:56:45.979Z,0.73
2023-04-02T12:59:36.562Z,0.80
2023-04-02T13:02:18.591Z,0.80
2023-04-02T13:04:51.014Z,0.73
2023-04-02T13:07:21.869Z,0.73
2023-04-02T13:09:57.379Z,0.90
2023-04-02T13:12:41.231Z,0.67
2023-04-02T13:15:20.655Z,0.87
2023-04-02T13:18:02.692Z,0.50
2023-04-02T13:20:41.214Z,0.60
2023-04-02T13:23:30.073Z,0.67
2023-04-02T13:26:00.018Z,0.90
2023-04-02T13:28:28.451Z,1.90
2023-04-02T13:30:55.622Z,0.83
2023-04-02T13:33:22.552Z,0.90
2023-04-02T13:35:49.614Z,0.50
2023-04-02T13:38:16.778Z,0.53
2023-04-02T13:40:43.938Z,0.53
2023-04-02T13:43:18.549Z,0.50
2023-04-02T13:45:50.315Z,0.70
2023-04-02T13:48:18.479Z,0.43
2023-04-02T13:50:46.614Z,0.43
2023-04-02T13:53:25.441Z,0.37
2023-04-02T13:55:52.780Z,0.50
2023-04-02T13:58:19.746Z,0.80
2023-04-02T14:00:47.376Z,0.70
2023-04-02T14:03:19.579Z,0.60
2023-04-02T14:06:01.433Z,1.70
2023-04-02T14:08:28.373Z,3.53
2023-04-02T14:11:03.454Z,1.77
2023-04-02T14:14:08.062Z,0.90
2023-04-02T14:17:08.678Z,1.23
2023-04-02T14:20:03.271Z,0.80
2023-04-02T14:23:06.034Z,0.90
2023-04-02T14:25:55.108Z,0.60
2023-04-02T14:28:23.908Z,0.90
2023-04-02T14:31:02.118Z,0.60
2023-04-02T14:33:37.637Z,0.73
2023-04-02T14:36:30.588Z,0.57
2023-04-02T14:39:10.063Z,0.77
2023-04-02T14:41:49.808Z,0.50
2023-04-02T14:44:23.309Z,0.70
2023-04-02T14:46:59.643Z,0.60
2023-04-02T14:49:32.532Z,0.80
2023-04-02T14:52:09.159Z,1.07
2023-04-02T14:54:42.890Z,0.80
2023-04-02T14:57:23.432Z,0.50
2023-04-02T15:00:06.162Z,0.73
2023-04-02T15:02:54.860Z,0.70
2023-04-02T15:05:52.731Z,0.90
2023-04-02T15:08:48.334Z,1.13
2023-04-02T15:11:26.195Z,0.70
2023-04-02T15:14:14.251Z,0.80
2023-04-02T15:16:41.769Z,0.40
2023-04-02T15:19:18.142Z,0.73
2023-04-02T15:22:14.360Z,0.53
2023-04-02T15:25:04.535Z,0.37
2023-04-02T15:28:01.969Z,0.50
2023-04-02T15:30:36.986Z,0.60
2023-04-02T15:33:23.021Z,0.70
2023-04-02T15:36:13.462Z,0.70
2023-04-02T15:38:45.736Z,0.53
2023-04-02T15:41:26.453Z,0.50
2023-04-02T15:44:14.839Z,0.67
2023-04-02T15:47:40.956Z,0.70
2023-04-02T15:50:08.677Z,0.80
2023-04-02T15:52:48.093Z,0.50
2023-04-02T15:55:27.769Z,0.70
2023-04-02T15:58:32.331Z,0.43
2023-04-02T16:01:22.023Z,0.60
2023-04-02T16:04:01.604Z,0.50
2023-04-02T16:06:58.937Z,0.60
2023-04-02T16:09:49.379Z,0.53
2023-04-02T16:12:21.414Z,0.53
2023-04-02T16:14:49.657Z,0.80
2023-04-02T16:17:28.515Z,0.50
2023-04-02T16:20:18.691Z,0.60
2023-04-02T16:23:01.153Z,0.63
2023-04-02T16:25:34.484Z,0.40
2023-04-02T16:28:15.260Z,0.80
2023-04-02T16:31:13.065Z,0.60
2023-04-02T16:34:08.638Z,0.80
2023-04-02T16:36:50.592Z,0.70
2023-04-02T16:39:36.091Z,0.80
2023-04-02T16:42:17.092Z,0.90
2023-04-02T16:44:51.890Z,0.70
2023-04-02T16:47:21.594Z,0.70
2023-04-02T16:49:51.338Z,1.00
2023-04-02T16:53:13.479Z,0.63
2023-04-02T16:55:52.314Z,0.50
2023-04-02T16:58:49.125Z,0.50
2023-04-02T17:01:46.561Z,0.40
2023-04-02T17:04:35.737Z,0.60
2023-04-02T17:07:11.330Z,0.80
2023-04-02T17:09:48.044Z,1.30
2023-04-02T17:12:36.864Z,0.93
2023-04-02T17:15:24.902Z,0.60
2023-04-02T17:17:58.426Z,0.80
2023-04-02T17:20:26.541Z,1.03
2023-04-02T17:22:54.573Z,0.87
2023-04-02T17:25:35.540Z,0.70
2023-04-02T17:28:03.298Z,0.80
2023-04-02T17:30:38.362Z,0.60
2023-04-02T17:33:13.872Z,0.70
2023-04-02T17:35:59.234Z,0.60
2023-04-02T17:38:51.113Z,0.83
2023-04-02T17:41:47.592Z,0.77
2023-04-02T17:44:51.918Z,0.67
2023-04-02T17:47:49.689Z,0.70
2023-04-02T17:50:31.635Z,1.00
2023-04-02T17:53:34.095Z,0.77
2023-04-02T17:56:05.937Z,0.67
2023-04-02T17:58:50.338Z,0.60
2023-04-02T18:01:46.854Z,0.80
2023-04-02T18:04:43.550Z,1.00
2023-04-02T18:07:43.796Z,0.80
2023-04-02T18:10:24.323Z,1.00
2023-04-02T18:13:18.981Z,1.00
2023-04-02T18:15:46.276Z,1.10
2023-04-02T18:18:18.840Z,0.80
2023-04-02T18:21:19.292Z,0.63
2023-04-02T18:24:19.964Z,0.80
2023-04-02T18:26:59.129Z,0.90
2023-04-02T18:30:13.581Z,0.60
2023-04-02T18:33:28.564Z,0.70
2023-04-02T18:36:11.126Z,0.67
2023-04-02T18:39:02.349Z,0.70
2023-04-02T18:42:03.016Z,0.80
2023-04-02T18:44:49.429Z,0.70
2023-04-02T18:47:22.936Z,0.70
2023-04-02T18:50:11.373Z,0.90
2023-04-02T18:52:39.972Z,0.83
2023-04-02T18:55:15.944Z,1.13
2023-04-02T18:57:45.353Z,0.80
2023-04-02T19:00:36.825Z,0.80
2023-04-02T19:03:14.734Z,0.93
2023-04-02T19:05:49.660Z,0.90
2023-04-02T19:08:48.669Z,1.20
2023-04-02T19:11:28.557Z,1.00
2023-04-02T19:14:00.482Z,1.10
2023-04-02T19:16:56.994Z,1.03
2023-04-02T19:19:31.141Z,0.80
2023-04-02T19:22:13.196Z,1.00
2023-04-02T19:25:08.141Z,0.80
2023-04-02T19:28:06.494Z,0.93
2023-04-02T19:31:11.999Z,0.80
2023-04-02T19:33:49.829Z,1.00
2023-04-02T19:36:55.352Z,0.73
2023-04-02T19:39:38.958Z,0.87
2023-04-02T19:42:42.177Z,0.60
2023-04-02T19:45:22.263Z,0.50
2023-04-02T19:47:49.352Z,0.50
2023-04-02T19:50:16.321Z,0.43
2023-04-02T19:52:43.269Z,0.70
2023-04-02T19:55:10.455Z,0.63
2023-04-02T19:57:37.399Z,0.70
2023-04-02T20:00:04.909Z,0.87
2023-04-02T20:02:38.926Z,0.63
2023-04-02T20:05:06.469Z,1.07
2023-04-02T20:07:33.403Z,1.13
2023-04-02T20:10:00.508Z,1.10
2023-04-02T20:12:27.481Z,0.87
2023-04-02T20:14:54.744Z,0.80
2023-04-02T20:17:21.808Z,0.53
2023-04-02T20:19:48.681Z,0.80
2023-04-02T20:22:15.687Z,0.73
2023-04-02T20:24:42.792Z,0.80
2023-04-02T20:27:09.772Z,1.00
2023-04-02T20:29:36.613Z,0.97
2023-04-02T20:32:03.565Z,0.70
2023-04-02T20:34:30.740Z,0.60
2023-04-02T20:36:58.376Z,0.70
2023-04-02T20:39:25.786Z,0.60
2023-04-02T20:41:52.826Z,0.90
2023-04-02T20:44:19.656Z,0.50
2023-04-02T20:46:46.966Z,0.80
2023-04-02T20:49:13.964Z,0.90
2023-04-02T20:51:40.916Z,0.93
2023-04-02T20:54:07.866Z,0.90
2023-04-02T20:56:34.836Z,0.60
2023-04-02T20:59:04.405Z,0.90
2023-04-02T21:01:31.569Z,0.60
2023-04-02T21:04:01.170Z,0.80
2023-04-02T21:06:31.483Z,0.50
2023-04-02T21:08:58.999Z,0.90
2023-04-02T21:11:26.356Z,0.80
2023-04-02T21:13:53.769Z,0.60
2023-04-02T21:16:24.109Z,0.70
2023-04-02T21:18:53.833Z,0.97
2023-04-02T21:21:22.086Z,0.97
2023-04-02T21:23:59.364Z,1.00
2023-04-02T21:26:27.841Z,1.10
2023-04-02T21:28:55.380Z,0.60
2023-04-02T21:31:27.981Z,0.80
2023-04-02T21:33:57.591Z,0.80
2023-04-02T21:36:25.708Z,0.70
2023-04-02T21:38:55.606Z,0.70
2023-04-02T21:41:26.553Z,0.70
2023-04-02T21:43:55.014Z,0.73
2023-04-02T21:46:25.066Z,0.60
2023-04-02T21:48:53.780Z,0.67
2023-04-02T21:51:26.577Z,0.80
2023-04-02T21:53:54.891Z,0.70
2023-04-02T21:56:27.817Z,0.70
2023-04-02T21:58:56.978Z,0.80
2023-04-02T22:01:27.981Z,0.60
2023-04-02T22:03:56.825Z,0.70
2023-04-02T22:06:26.379Z,0.60
2023-04-02T22:09:01.946Z,0.60
2023-04-02T22:11:32.502Z,0.80
2023-04-02T22:13:59.812Z,0.60
2023-04-02T22:16:29.275Z,0.70
2023-04-02T22:18:58.607Z,0.90
2023-04-02T22:21:45.984Z,0.90
2023-04-02T22:24:28.225Z,0.90
2023-04-02T22:26:55.634Z,0.90
2023-04-02T22:29:22.460Z,0.97
2023-04-02T22:31:49.257Z,0.80
2023-04-02T22:34:16.542Z,0.80
2023-04-02T22:36:43.382Z,0.70
2023-04-02T22:39:12.149Z,0.80
2023-04-02T22:41:39.422Z,0.90
2023-04-02T22:44:06.976Z,0.87
2023-04-02T22:46:34.790Z,0.77
2023-04-02T22:49:02.118Z,0.90
2023-04-02T22:51:29.552Z,0.77
2023-04-02T22:53:57.118Z,0.90
2023-04-02T22:56:28.647Z,0.70
2023-04-02T22:58:55.891Z,0.70
2023-04-02T23:01:27.659Z,0.70
2023-04-02T23:03:55.895Z,0.83
2023-04-02T23:06:23.754Z,0.70
2023-04-02T23:08:51.406Z,1.00
2023-04-02T23:11:24.150Z,0.90
2023-04-02T23:13:52.733Z,1.00
2023-04-02T23:16:20.482Z,0.77
2023-04-02T23:18:48.209Z,0.90
2023-04-02T23:21:16.932Z,0.83
2023-04-02T23:23:45.045Z,0.80
2023-04-02T23:26:15.037Z,0.90
2023-04-02T23:28:42.139Z,0.97
2023-04-02T23:31:12.979Z,0.80
2023-04-02T23:33:40.226Z,0.87
2023-04-02T23:36:14.051Z,1.00
2023-04-02T23:38:41.050Z,1.40
2023-04-02T23:41:08.160Z,1.00
2023-04-02T23:43:35.037Z,1.10
2023-04-02T23:46:02.204Z,1.03
2023-04-02T23:48:29.473Z,1.10
2023-04-02T23:50:56.393Z,1.10
2023-04-02T23:53:23.812Z,0.80
2023-04-02T23:55:51.030Z,1.00
2023-04-02T23:58:17.956Z,1.10
